Time;durP1;ratioP1;P1;durP2;ratioP2;P2;SDS_P1;SDS_P2;PMS_P1;PMS_P2;Temp;Humidity;BMP_temperature;BMP_pressure;BME280_temperature;BME280_humidity;BME280_pressure;Samples;Min_cycle;Max_cycle;Signal;HPM_P1;HPM_P2
2022/10/09 00:00:16;;;;;;;0.10;0.10;;;8.00;99.90;;;;;;5032426;28;20077;-81
2022/10/09 00:02:44;;;;;;;0.10;0.10;;;7.90;99.90;;;;;;5013883;28;20116;-82
2022/10/09 00:05:11;;;;;;;0.10;0.10;;;7.90;99.90;;;;;;5015614;28;20045;-82
2022/10/09 00:07:38;;;;;;;0.10;0.10;;;8.00;99.90;;;;;;5014292;28;20049;-83
2022/10/09 00:10:05;;;;;;;0.10;0.10;;;8.10;99.90;;;;;;5033154;28;20049;-81
2022/10/09 00:12:32;;;;;;;0.10;0.10;;;8.10;99.90;;;;;;5014378;28;20068;-81
2022/10/09 00:14:59;;;;;;;0.10;0.10;;;8.10;99.90;;;;;;5032456;28;20521;-81
2022/10/09 00:17:26;;;;;;;0.10;0.10;;;8.00;99.90;;;;;;5014844;28;20087;-82
2022/10/09 00:19:54;;;;;;;0.10;0.10;;;8.00;99.90;;;;;;5032774;28;20125;-82
2022/10/09 00:22:21;;;;;;;0.10;0.10;;;8.00;99.90;;;;;;5014233;28;20088;-83
2022/10/09 00:24:47;;;;;;;0.10;0.10;;;8.00;99.90;;;;;;5013157;28;20497;-84
2022/10/09 00:27:14;;;;;;;0.00;0.00;;;8.00;99.90;;;;;;5015113;28;20045;-82
2022/10/09 00:29:41;;;;;;;0.10;0.10;;;8.00;99.90;;;;;;5013181;28;20040;-81
2022/10/09 00:32:08;;;;;;;0.10;0.10;;;8.90;99.90;;;;;;5014676;28;20478;-80
2022/10/09 00:34:35;;;;;;;0.10;0.10;;;7.90;99.90;;;;;;5031155;28;20052;-80
2022/10/09 00:37:03;;;;;;;0.10;0.10;;;7.80;99.90;;;;;;5013776;28;20529;-81
2022/10/09 00:39:30;;;;;;;0.10;0.10;;;7.80;99.90;;;;;;5031654;28;20084;-83
2022/10/09 00:41:56;;;;;;;0.10;0.10;;;7.80;99.90;;;;;;5014587;28;20041;-81
2022/10/09 00:44:48;;;;;;;0.10;0.10;;;7.70;99.90;;;;;;5031821;28;20038;-83
2022/10/09 00:47:21;;;;;;;0.10;0.10;;;7.80;99.90;;;;;;5011250;28;20068;-80
2022/10/09 00:49:50;;;;;;;0.10;0.10;;;7.80;99.90;;;;;;5014370;28;20045;-82
2022/10/09 00:52:20;;;;;;;0.10;0.10;;;7.70;99.90;;;;;;5014727;28;20037;-82
2022/10/09 00:54:47;;;;;;;0.10;0.10;;;7.70;99.90;;;;;;5014801;28;20136;-83
2022/10/09 00:57:14;;;;;;;0.10;0.10;;;7.70;99.90;;;;;;5029335;28;20045;-84
2022/10/09 00:59:41;;;;;;;0.10;0.10;;;7.70;99.90;;;;;;5009212;28;20038;-82
2022/10/09 01:02:07;;;;;;;0.10;0.10;;;7.70;99.90;;;;;;5023044;28;20128;-83
2022/10/09 01:04:38;;;;;;;0.10;0.10;;;7.60;99.90;;;;;;5027277;28;20056;-81
2022/10/09 01:07:23;;;;;;;0.00;0.00;;;7.60;99.90;;;;;;5012604;28;20037;-81
2022/10/09 01:10:00;;;;;;;0.10;0.10;;;7.60;99.90;;;;;;5014700;28;20045;-83
2022/10/09 01:12:37;;;;;;;0.10;0.10;;;7.50;99.90;;;;;;5010499;28;20045;-82
2022/10/09 01:15:12;;;;;;;0.10;0.10;;;7.60;99.90;;;;;;5031184;28;20409;-83
2022/10/09 01:17:50;;;;;;;0.10;0.10;;;7.60;99.90;;;;;;5030121;28;20048;-83
2022/10/09 01:20:36;;;;;;;0.00;0.00;;;7.60;99.90;;;;;;5012631;28;20041;-82
2022/10/09 01:23:18;;;;;;;0.10;0.10;;;7.60;99.90;;;;;;5026390;28;20108;-82
2022/10/09 01:28:19;;;;;;;0.10;0.10;;;7.50;99.90;;;;;;5046903;28;20045;-84
2022/10/09 01:30:47;;;;;;;0.10;0.10;;;7.50;99.90;;;;;;5027036;28;20044;-84
2022/10/09 01:33:15;;;;;;;0.10;0.10;;;7.50;99.90;;;;;;5022546;28;20049;-84
2022/10/09 01:35:45;;;;;;;0.10;0.10;;;7.50;99.90;;;;;;5036364;28;20045;-84
2022/10/09 01:38:13;;;;;;;;;;;7.50;99.90;;;;;;5011020;28;20420;-85
2022/10/09 01:40:41;;;;;;;0.10;0.10;;;;;;;;;;5010367;28;19925;-85
2022/10/09 01:43:07;;;;;;;0.10;0.10;;;7.40;99.90;;;;;;5032003;28;20048;-85
2022/10/09 01:45:41;;;;;;;0.10;0.10;;;7.50;99.90;;;;;;5016263;28;20041;-83
2022/10/09 01:48:13;;;;;;;0.10;0.10;;;7.40;99.90;;;;;;5018457;28;20037;-85
2022/10/09 01:50:44;;;;;;;0.10;0.10;;;7.30;99.90;;;;;;5022958;28;20047;-85
2022/10/09 01:53:14;;;;;;;0.10;0.10;;;7.30;99.90;;;;;;5028290;28;20051;-84
2022/10/09 01:55:48;;;;;;;0.08;0.08;;;7.20;99.90;;;;;;5027608;28;20041;-85
2022/10/09 01:58:19;;;;;;;0.10;0.10;;;7.10;99.90;;;;;;5024535;28;20482;-85
2022/10/09 02:00:52;;;;;;;0.10;0.10;;;7.20;99.90;;;;;;5010381;28;20525;-84
2022/10/09 02:03:21;;;;;;;0.10;0.10;;;7.20;99.90;;;;;;5013655;28;20100;-84
2022/10/09 02:05:50;;;;;;;0.10;0.10;;;7.10;99.90;;;;;;5011523;28;20414;-85
2022/10/09 02:08:19;;;;;;;0.10;0.10;;;7.10;99.90;;;;;;5004192;28;20037;-84
2022/10/09 02:10:50;;;;;;;0.10;0.10;;;7.10;99.90;;;;;;5035151;28;20128;-86
2022/10/09 02:13:17;;;;;;;0.10;0.10;;;7.00;99.90;;;;;;5016450;28;20073;-86
2022/10/09 02:15:50;;;;;;;0.10;0.10;;;7.10;99.90;;;;;;5038622;28;20085;-85
2022/10/09 02:18:24;;;;;;;0.10;0.10;;;7.00;99.90;;;;;;5020648;28;20096;-86
2022/10/09 02:20:57;;;;;;;0.10;0.10;;;7.00;99.90;;;;;;5033719;28;20045;-84
2022/10/09 02:23:25;;;;;;;0.10;0.10;;;7.00;99.90;;;;;;5032630;28;20056;-85
2022/10/09 02:25:53;;;;;;;0.10;0.10;;;;;;;;;;5028578;28;20056;-85
2022/10/09 02:28:21;;;;;;;0.10;0.10;;;;;;;;;;5011147;28;20056;-85
2022/10/09 02:30:55;;;;;;;0.10;0.10;;;7.00;99.90;;;;;;5028186;28;20050;-82
2022/10/09 02:33:26;;;;;;;0.00;0.00;;;6.90;99.90;;;;;;5037097;28;20053;-85
2022/10/09 02:35:53;;;;;;;0.10;0.10;;;6.90;99.90;;;;;;5036854;28;20052;-84
2022/10/09 02:38:20;;;;;;;0.10;0.10;;;6.90;99.90;;;;;;5007725;28;20042;-86
2022/10/09 02:40:47;;;;;;;0.10;0.10;;;6.80;99.90;;;;;;5030185;28;20049;-83
2022/10/09 02:43:14;;;;;;;0.10;0.10;;;;;;;;;;5032682;28;20041;-83
2022/10/09 02:45:42;;;;;;;0.00;0.00;;;6.70;99.90;;;;;;5014377;28;20045;-82
2022/10/09 02:48:10;;;;;;;0.10;0.10;;;6.60;99.90;;;;;;5035262;28;20519;-83
2022/10/09 02:50:37;;;;;;;0.10;0.10;;;;;;;;;;5044841;28;20049;-83
2022/10/09 02:53:04;;;;;;;0.10;0.10;;;6.60;99.90;;;;;;5033517;28;20523;-85
2022/10/09 02:55:31;;;;;;;0.03;0.03;;;6.60;99.90;;;;;;5037741;28;20043;-85
2022/10/09 02:57:57;;;;;;;0.10;0.10;;;7.30;99.90;;;;;;5033608;28;20028;-85
2022/10/09 03:00:24;;;;;;;0.10;0.10;;;6.70;99.90;;;;;;5018084;28;20490;-83
2022/10/09 03:02:51;;;;;;;0.10;0.10;;;6.70;99.90;;;;;;5030978;28;20057;-84
2022/10/09 03:05:20;;;;;;;0.10;0.10;;;6.70;99.90;;;;;;5020781;28;20040;-84
2022/10/09 03:07:50;;;;;;;0.10;0.10;;;6.60;99.90;;;;;;5017568;28;20048;-86
2022/10/09 03:10:17;;;;;;;;;;;6.60;99.90;;;;;;5048015;28;20428;-84
2022/10/09 03:12:44;;;;;;;0.10;0.10;;;6.60;99.90;;;;;;5029201;28;19921;-86
2022/10/09 03:15:12;;;;;;;0.10;0.10;;;6.60;99.90;;;;;;5031067;28;20049;-86
2022/10/09 03:17:39;;;;;;;0.03;0.03;;;6.60;99.90;;;;;;5037770;28;20037;-83
2022/10/09 03:20:06;;;;;;;0.10;0.10;;;6.60;99.90;;;;;;5027077;28;20040;-86
2022/10/09 03:22:35;;;;;;;0.10;0.10;;;6.60;99.90;;;;;;5013500;28;20052;-86
2022/10/09 03:25:01;;;;;;;0.10;0.10;;;6.50;99.90;;;;;;5038326;28;20049;-85
2022/10/09 03:27:29;;;;;;;0.10;0.10;;;6.50;99.90;;;;;;5011838;28;20030;-86
2022/10/09 03:29:57;;;;;;;0.10;0.10;;;6.40;99.90;;;;;;5036419;28;20037;-85
2022/10/09 03:32:25;;;;;;;0.10;0.10;;;6.30;99.90;;;;;;5026761;28;20050;-84
2022/10/09 03:34:51;;;;;;;0.10;0.10;;;6.30;99.90;;;;;;5037988;28;20045;-84
2022/10/09 03:37:18;;;;;;;0.10;0.10;;;6.30;99.90;;;;;;5005899;28;20120;-84
2022/10/09 03:39:46;;;;;;;0.10;0.10;;;6.30;99.90;;;;;;5018768;28;20045;-83
2022/10/09 03:42:14;;;;;;;0.10;0.10;;;6.30;99.90;;;;;;5020571;28;20067;-85
2022/10/09 03:44:40;;;;;;;0.10;0.10;;;6.40;99.90;;;;;;5034797;28;20060;-85
2022/10/09 03:47:07;;;;;;;0.10;0.10;;;6.30;99.90;;;;;;5015832;28;20501;-85
2022/10/09 03:49:34;;;;;;;0.10;0.10;;;;;;;;;;5041714;28;20047;-85
2022/10/09 03:52:01;;;;;;;0.10;0.10;;;;;;;;;;5010716;28;20038;-85
2022/10/09 03:54:28;;;;;;;0.10;0.10;;;6.30;99.90;;;;;;5012934;28;20053;-85
2022/10/09 03:56:56;;;;;;;0.10;0.10;;;6.30;99.90;;;;;;5026632;28;20500;-84
2022/10/09 03:59:23;;;;;;;0.10;0.10;;;6.30;99.90;;;;;;5035498;28;20053;-85
2022/10/09 04:01:50;;;;;;;0.10;0.10;;;6.30;99.90;;;;;;5015728;28;20052;-85
2022/10/09 04:04:17;;;;;;;0.00;0.00;;;6.30;99.90;;;;;;5033231;28;20084;-85
2022/10/09 04:06:44;;;;;;;0.10;0.10;;;6.20;99.90;;;;;;5017571;28;20034;-85
2022/10/09 04:09:11;;;;;;;0.10;0.10;;;6.20;99.90;;;;;;5034282;28;20037;-86
2022/10/09 04:11:38;;;;;;;0.10;0.10;;;;;;;;;;5018867;28;20042;-85
2022/10/09 04:14:06;;;;;;;0.10;0.10;;;6.20;99.90;;;;;;5017837;28;20044;-84
2022/10/09 04:16:33;;;;;;;0.10;0.10;;;;;;;;;;5024215;28;20060;-86
2022/10/09 04:19:00;;;;;;;0.00;0.00;;;6.20;99.90;;;;;;5040400;28;20462;-85
2022/10/09 04:21:27;;;;;;;0.10;0.10;;;6.20;99.90;;;;;;5012571;28;20048;-85
2022/10/09 04:23:54;;;;;;;0.10;0.10;;;6.20;99.90;;;;;;5038065;28;20073;-85
2022/10/09 04:26:21;;;;;;;0.10;0.10;;;6.20;99.90;;;;;;5010341;28;20042;-85
2022/10/09 04:28:48;;;;;;;0.10;0.10;;;6.10;99.90;;;;;;5018713;28;20042;-84
2022/10/09 04:31:16;;;;;;;0.10;0.10;;;6.10;99.90;;;;;;5016947;28;20508;-85
2022/10/09 04:33:43;;;;;;;0.10;0.10;;;6.10;99.90;;;;;;5041850;28;20053;-85
2022/10/09 04:36:10;;;;;;;0.10;0.10;;;6.20;99.90;;;;;;5034428;28;20042;-86
2022/10/09 04:38:37;;;;;;;0.10;0.10;;;6.00;99.90;;;;;;5035575;28;20038;-86
2022/10/09 04:41:05;;;;;;;0.10;0.10;;;6.00;99.90;;;;;;5026544;28;20551;-86
2022/10/09 04:43:33;;;;;;;0.10;0.10;;;5.90;99.90;;;;;;5006807;28;20128;-85
2022/10/09 04:46:03;;;;;;;0.10;0.10;;;5.90;99.90;;;;;;5008967;28;20053;-86
2022/10/09 04:48:36;;;;;;;0.10;0.10;;;5.80;99.90;;;;;;5023896;28;20033;-86
2022/10/09 04:51:05;;;;;;;0.10;0.10;;;5.80;99.90;;;;;;5019492;28;20050;-85
2022/10/09 04:53:32;;;;;;;0.10;0.10;;;5.80;99.90;;;;;;5021249;28;20068;-85
2022/10/09 04:56:01;;;;;;;0.10;0.10;;;5.80;99.90;;;;;;5042626;28;20046;-85
2022/10/09 04:58:28;;;;;;;0.10;0.10;;;5.80;99.90;;;;;;5033226;28;20039;-84
2022/10/09 05:00:55;;;;;;;0.10;0.10;;;5.80;99.90;;;;;;5032860;28;20505;-84
2022/10/09 05:03:23;;;;;;;0.10;0.10;;;5.80;99.90;;;;;;5034162;28;20045;-85
2022/10/09 05:05:51;;;;;;;0.10;0.10;;;5.70;99.90;;;;;;5022558;28;20045;-85
2022/10/09 05:08:18;;;;;;;0.03;0.03;;;;;;;;;;5024098;28;20408;-84
2022/10/09 05:10:45;;;;;;;0.10;0.10;;;5.70;99.90;;;;;;5020237;28;20052;-82
2022/10/09 05:13:11;;;;;;;0.10;0.10;;;5.60;99.90;;;;;;5028941;28;20049;-85
2022/10/09 05:15:39;;;;;;;0.00;0.00;;;;;;;;;;5012997;28;20383;-84
2022/10/09 05:18:05;;;;;;;0.00;0.00;;;5.60;99.90;;;;;;5014063;28;20037;-84
2022/10/09 05:20:32;;;;;;;0.10;0.10;;;;;;;;;;5037100;28;20088;-85
2022/10/09 05:23:01;;;;;;;0.10;0.10;;;5.50;99.90;;;;;;5022005;28;20072;-85
2022/10/09 05:25:27;;;;;;;0.10;0.10;;;5.50;99.90;;;;;;5019107;28;20311;-84
2022/10/09 05:27:54;;;;;;;0.00;0.00;;;5.50;99.90;;;;;;5037499;28;20045;-85
2022/10/09 05:30:21;;;;;;;0.10;0.10;;;5.40;99.90;;;;;;5024321;28;20047;-84
2022/10/09 05:32:48;;;;;;;0.10;0.10;;;5.40;99.90;;;;;;5033015;28;20042;-85
2022/10/09 05:35:15;;;;;;;0.10;0.10;;;5.40;99.90;;;;;;5018002;28;20573;-85
2022/10/09 05:37:43;;;;;;;0.05;0.05;;;5.40;99.90;;;;;;5035550;28;20051;-85
2022/10/09 05:40:11;;;;;;;0.10;0.10;;;5.30;99.90;;;;;;5031315;28;20043;-84
2022/10/09 05:42:38;;;;;;;0.10;0.10;;;5.30;99.90;;;;;;5018840;28;20043;-84
2022/10/09 05:45:07;;;;;;;0.10;0.10;;;5.30;99.90;;;;;;5035350;28;20094;-84
2022/10/09 05:47:34;;;;;;;0.08;0.08;;;5.30;99.90;;;;;;5013476;28;20049;-84
2022/10/09 05:50:01;;;;;;;0.10;0.10;;;5.30;99.90;;;;;;5008916;28;20604;-84
2022/10/09 05:52:28;;;;;;;0.05;0.05;;;;;;;;;;5015980;28;20037;-83
2022/10/09 05:54:56;;;;;;;0.10;0.10;;;5.20;99.90;;;;;;5036298;28;20055;-84
2022/10/09 05:57:24;;;;;;;0.10;0.10;;;5.20;99.90;;;;;;5037793;28;20045;-83
2022/10/09 05:59:51;;;;;;;0.10;0.10;;;5.30;99.90;;;;;;5017105;28;20161;-84
2022/10/09 06:02:17;;;;;;;0.10;0.10;;;5.30;99.90;;;;;;5029672;28;20086;-84
2022/10/09 06:04:44;;;;;;;0.10;0.10;;;5.30;99.90;;;;;;5013459;28;20048;-84
2022/10/09 06:07:11;;;;;;;0.10;0.10;;;;;;;;;;5014728;28;20052;-83
2022/10/09 06:09:38;;;;;;;0.10;0.10;;;5.40;99.90;;;;;;5036665;28;20046;-84
2022/10/09 06:12:05;;;;;;;0.10;0.10;;;5.30;99.90;;;;;;5017811;28;20039;-85
2022/10/09 06:14:33;;;;;;;0.10;0.10;;;5.30;99.90;;;;;;5026349;28;20092;-84
2022/10/09 06:17:00;;;;;;;0.00;0.00;;;5.30;99.90;;;;;;5027263;28;20505;-85
2022/10/09 06:19:27;;;;;;;0.08;0.08;;;5.30;99.90;;;;;;5020647;28;20045;-85
2022/10/09 06:21:54;;;;;;;0.10;0.10;;;5.40;99.90;;;;;;5012715;28;21390;-85
2022/10/09 06:24:23;;;;;;;0.10;0.10;;;5.40;99.90;;;;;;5036307;28;20095;-84
2022/10/09 06:26:55;;;;;;;0.10;0.10;;;5.40;99.90;;;;;;5034411;28;20053;-85
2022/10/09 06:29:22;;;;;;;0.00;0.00;;;5.40;99.90;;;;;;5015072;28;20415;-85
2022/10/09 06:31:50;;;;;;;0.00;0.00;;;5.40;99.90;;;;;;5017211;28;20050;-85
2022/10/09 06:34:17;;;;;;;0.00;0.00;;;;;;;;;;5038498;28;20038;-84
2022/10/09 06:36:44;;;;;;;0.10;0.10;;;5.30;99.90;;;;;;5021808;28;20048;-84
2022/10/09 06:39:11;;;;;;;0.10;0.10;;;5.40;99.90;;;;;;5015941;28;20057;-84
2022/10/09 06:41:38;;;;;;;0.00;0.00;;;5.40;99.90;;;;;;5022583;28;20067;-84
2022/10/09 06:44:09;;;;;;;0.10;0.10;;;5.40;99.90;;;;;;5045099;28;20044;-84
2022/10/09 06:46:43;;;;;;;0.10;0.10;;;5.50;99.90;;;;;;5026600;28;20049;-84
2022/10/09 06:49:11;;;;;;;0.05;0.05;;;5.50;99.90;;;;;;5018847;28;20128;-84
2022/10/09 06:51:38;;;;;;;0.10;0.10;;;;;;;;;;5039345;28;20075;-84
2022/10/09 06:54:16;;;;;;;0.10;0.10;;;5.60;99.90;;;;;;5026171;28;20055;-85
2022/10/09 06:56:44;;;;;;;0.10;0.10;;;5.60;99.90;;;;;;5034675;28;20300;-85
2022/10/09 06:59:11;;;;;;;0.10;0.10;;;;;;;;;;5034600;28;20048;-84
2022/10/09 07:01:38;;;;;;;0.10;0.10;;;5.70;99.90;;;;;;5036887;28;20045;-84
2022/10/09 07:04:10;;;;;;;0.10;0.10;;;5.70;99.90;;;;;;5020302;28;20044;-84
2022/10/09 07:06:40;;;;;;;0.10;0.10;;;5.80;99.90;;;;;;5034569;28;20054;-84
2022/10/09 07:09:09;;;;;;;0.08;0.08;;;5.90;99.90;;;;;;5029375;28;20478;-84
2022/10/09 07:11:38;;;;;;;0.10;0.10;;;5.80;99.90;;;;;;5036367;28;20055;-85
2022/10/09 07:14:07;;;;;;;0.10;0.10;;;6.00;99.90;;;;;;5018945;28;20037;-85
2022/10/09 07:16:35;;;;;;;0.10;0.10;;;6.00;99.90;;;;;;5034796;28;20053;-84
2022/10/09 07:19:06;;;;;;;0.10;0.10;;;;;;;;;;5034948;28;20525;-85
2022/10/09 07:21:33;;;;;;;0.10;0.10;;;6.10;99.90;;;;;;5030769;28;20046;-84
2022/10/09 07:24:02;;;;;;;0.10;0.10;;;6.10;99.90;;;;;;5016261;28;20051;-84
2022/10/09 07:26:31;;;;;;;0.10;0.10;;;6.20;99.90;;;;;;5049441;23;20456;-83
2022/10/09 07:28:58;;;;;;;0.10;0.10;;;6.30;99.90;;;;;;5051819;28;20047;-82
2022/10/09 07:31:25;;;;;;;0.10;0.10;;;6.30;99.90;;;;;;5029949;28;20041;-81
2022/10/09 07:33:54;;;;;;;0.10;0.10;;;6.40;99.90;;;;;;5048404;28;20045;-82
2022/10/09 07:36:21;;;;;;;0.10;0.10;;;6.40;99.90;;;;;;5027397;28;20040;-81
2022/10/09 07:38:49;;;;;;;0.10;0.10;;;;;;;;;;5034024;28;20045;-83
2022/10/09 07:41:17;;;;;;;0.00;0.00;;;6.60;99.90;;;;;;5009861;28;20425;-81
2022/10/09 07:43:45;;;;;;;0.10;0.10;;;;;;;;;;5015584;28;20041;-82
2022/10/09 07:46:14;;;;;;;0.10;0.10;;;6.80;99.90;;;;;;5013850;28;20056;-83
2022/10/09 07:48:41;;;;;;;0.10;0.10;;;6.90;99.90;;;;;;5007209;28;20042;-80
2022/10/09 07:51:11;;;;;;;0.10;0.10;;;7.00;99.90;;;;;;5032893;28;20046;-83
2022/10/09 07:53:38;;;;;;;0.10;0.10;;;7.20;99.90;;;;;;5013998;28;20049;-83
2022/10/09 07:56:05;;;;;;;0.10;0.10;;;7.20;99.90;;;;;;5013682;28;20409;-83
2022/10/09 07:58:34;;;;;;;0.10;0.10;;;7.30;99.90;;;;;;5031785;28;20120;-80
2022/10/09 08:01:05;;;;;;;0.10;0.10;;;8.60;99.90;;;;;;5011157;28;20135;-82
2022/10/09 08:03:32;;;;;;;0.10;0.10;;;7.40;99.90;;;;;;5013377;28;20033;-81
2022/10/09 08:05:59;;;;;;;0.10;0.10;;;7.50;99.90;;;;;;5015505;28;20049;-82
2022/10/09 08:08:26;;;;;;;0.10;0.10;;;7.50;99.90;;;;;;5003722;28;20037;-82
2022/10/09 08:10:53;;;;;;;0.10;0.10;;;7.60;99.90;;;;;;5030245;28;20052;-81
2022/10/09 08:13:19;;;;;;;0.10;0.10;;;7.70;99.90;;;;;;5012032;28;20101;-83
2022/10/09 08:15:48;;;;;;;0.10;0.10;;;7.80;99.90;;;;;;5024492;28;20049;-82
2022/10/09 08:18:15;;;;;;;0.10;0.10;;;7.90;99.90;;;;;;5015155;28;20042;-81
2022/10/09 08:20:42;;;;;;;0.10;0.10;;;8.00;99.90;;;;;;5013505;28;20077;-82
2022/10/09 08:23:09;;;;;;;0.10;0.10;;;8.10;99.90;;;;;;5011545;28;20084;-81
2022/10/09 08:25:36;;;;;;;0.10;0.10;;;8.10;99.90;;;;;;5015696;28;20049;-82
2022/10/09 08:28:04;;;;;;;0.10;0.10;;;8.30;99.90;;;;;;5015338;28;20049;-81
2022/10/09 08:30:31;;;;;;;0.10;0.10;;;8.30;99.90;;;;;;5012727;28;20051;-81
2022/10/09 08:32:59;;;;;;;0.10;0.10;;;8.40;99.90;;;;;;5013466;28;20045;-81
2022/10/09 08:35:26;;;;;;;0.10;0.10;;;8.40;99.90;;;;;;5019942;28;20045;-81
2022/10/09 08:37:58;;;;;;;0.10;0.10;;;8.50;99.90;;;;;;5012605;28;20032;-81
2022/10/09 08:40:32;;;;;;;0.10;0.10;;;9.30;99.90;;;;;;5014692;28;20386;-81
2022/10/09 08:43:03;;;;;;;0.00;0.00;;;8.60;99.90;;;;;;5026291;28;20037;-82
2022/10/09 08:45:33;;;;;;;0.00;0.00;;;8.70;99.90;;;;;;5015547;28;20069;-81
2022/10/09 08:48:07;;;;;;;0.10;0.10;;;8.90;99.90;;;;;;5017489;28;20042;-81
2022/10/09 08:50:37;;;;;;;0.10;0.10;;;9.00;99.90;;;;;;5012875;28;20477;-81
2022/10/09 08:53:12;;;;;;;0.10;0.10;;;9.00;99.90;;;;;;5009845;28;20560;-81
2022/10/09 08:55:44;;;;;;;0.10;0.10;;;9.20;99.90;;;;;;5015520;28;20096;-81
2022/10/09 08:58:16;;;;;;;0.10;0.10;;;9.30;99.90;;;;;;5013061;28;20128;-81
2022/10/09 09:00:44;;;;;;;0.10;0.10;;;9.30;99.90;;;;;;5015704;28;20061;-80
2022/10/09 09:03:37;;;;;;;0.00;0.00;;;9.50;99.90;;;;;;5008733;28;20124;-82
2022/10/09 09:06:08;;;;;;;0.10;0.10;;;9.60;99.90;;;;;;5031019;28;20068;-81
2022/10/09 09:08:43;;;;;;;0.10;0.10;;;9.70;99.90;;;;;;5015029;28;20119;-82
2022/10/09 09:11:17;;;;;;;0.10;0.10;;;9.80;99.90;;;;;;5014879;28;20038;-81
2022/10/09 09:13:56;;;;;;;0.05;0.05;;;10.50;99.90;;;;;;5028368;28;20057;-81
2022/10/09 09:16:30;;;;;;;0.10;0.10;;;10.00;99.90;;;;;;5031487;28;20081;-81
2022/10/09 09:19:13;;;;;;;0.10;0.10;;;10.10;99.90;;;;;;5029068;28;20077;-80
2022/10/09 09:21:47;;;;;;;0.10;0.10;;;10.20;99.90;;;;;;5024994;28;20034;-80
2022/10/09 09:24:17;;;;;;;0.00;0.00;;;10.20;99.90;;;;;;5016050;28;20053;-81
2022/10/09 09:26:48;;;;;;;0.00;0.00;;;10.30;99.90;;;;;;5033262;28;20103;-81
2022/10/09 09:29:20;;;;;;;0.00;0.00;;;10.40;99.90;;;;;;5025858;28;20049;-82
2022/10/09 09:31:48;;;;;;;0.00;0.00;;;10.50;99.90;;;;;;5011495;28;20474;-83
2022/10/09 09:34:22;;;;;;;0.03;0.03;;;10.60;99.90;;;;;;5013706;28;20485;-81
2022/10/09 09:36:53;;;;;;;0.00;0.00;;;10.70;99.90;;;;;;5009931;28;20049;-82
2022/10/09 09:39:21;;;;;;;0.10;0.10;;;10.80;99.90;;;;;;5031467;28;20125;-81
2022/10/09 09:42:14;;;;;;;0.00;0.00;;;10.90;99.90;;;;;;5015283;28;20049;-81
2022/10/09 09:44:46;;;;;;;0.00;0.00;;;11.00;99.90;;;;;;5014329;28;20440;-81
2022/10/09 09:47:22;;;;;;;0.00;0.00;;;11.40;99.90;;;;;;5036866;28;20129;-81
2022/10/09 09:49:56;;;;;;;0.00;0.00;;;11.20;99.90;;;;;;5032152;28;20096;-81
2022/10/09 09:52:25;;;;;;;0.00;0.00;;;11.20;99.90;;;;;;5013884;28;20489;-81
2022/10/09 09:54:56;;;;;;;0.00;0.00;;;11.30;99.90;;;;;;5017037;28;20057;-82
2022/10/09 09:57:30;;;;;;;0.00;0.00;;;11.30;99.90;;;;;;5012270;28;20041;-79
2022/10/09 10:00:19;;;;;;;0.00;0.00;;;11.40;99.90;;;;;;5017301;28;20038;-81
2022/10/09 10:02:47;;;;;;;0.00;0.00;;;11.50;99.90;;;;;;5016975;28;20577;-81
2022/10/09 10:05:20;;;;;;;0.00;0.00;;;12.50;99.90;;;;;;5019408;28;20045;-82
2022/10/09 10:07:50;;;;;;;0.00;0.00;;;11.60;99.90;;;;;;5016841;28;20261;-80
2022/10/09 10:10:19;;;;;;;0.00;0.00;;;11.80;99.90;;;;;;5017104;28;20477;-81
2022/10/09 10:12:56;;;;;;;0.00;0.00;;;11.90;99.90;;;;;;5030401;28;20051;-81
2022/10/09 10:15:25;;;;;;;0.00;0.00;;;11.90;99.90;;;;;;5031602;28;20050;-82
2022/10/09 10:17:58;;;;;;;0.00;0.00;;;12.10;99.90;;;;;;5022073;28;20133;-80
2022/10/09 10:20:28;;;;;;;0.00;0.00;;;12.10;99.90;;;;;;5034732;28;20030;-81
2022/10/09 10:22:57;;;;;;;0.00;0.00;;;12.10;99.90;;;;;;5016116;28;20080;-81
2022/10/09 10:25:27;;;;;;;0.00;0.00;;;12.20;99.90;;;;;;5035272;28;20049;-82
2022/10/09 10:27:59;;;;;;;0.00;0.00;;;12.90;99.90;;;;;;5031561;28;20145;-82
2022/10/09 10:30:26;;;;;;;0.00;0.00;;;12.40;99.90;;;;;;5030023;28;20116;-81
2022/10/09 10:32:59;;;;;;;0.00;0.00;;;13.10;99.90;;;;;;5014028;28;20552;-81
2022/10/09 10:35:30;;;;;;;0.00;0.00;;;12.50;99.90;;;;;;5033800;28;20323;-82
2022/10/09 10:38:05;;;;;;;0.00;0.00;;;12.70;99.90;;;;;;5032416;28;20072;-80
2022/10/09 10:40:36;;;;;;;0.00;0.00;;;12.80;99.90;;;;;;5016394;28;20045;-81
2022/10/09 10:43:12;;;;;;;0.00;0.00;;;12.70;99.90;;;;;;5026588;28;20045;-82
2022/10/09 10:45:48;;;;;;;0.00;0.00;;;12.80;99.90;;;;;;5012350;28;20080;-80
2022/10/09 10:48:18;;;;;;;0.00;0.00;;;13.00;99.90;;;;;;5014764;28;20499;-81
2022/10/09 10:50:52;;;;;;;0.00;0.00;;;12.80;99.90;;;;;;5007423;28;20132;-82
2022/10/09 10:53:25;;;;;;;0.00;0.00;;;12.80;99.90;;;;;;5031042;28;20055;-81
2022/10/09 10:55:55;;;;;;;0.00;0.00;;;12.90;99.90;;;;;;5016181;28;20045;-81
2022/10/09 10:58:30;;;;;;;0.00;0.00;;;12.90;99.90;;;;;;5025582;28;20052;-81
2022/10/09 11:01:10;;;;;;;0.00;0.00;;;13.00;99.90;;;;;;5012069;28;20088;-81
2022/10/09 11:03:43;;;;;;;;;;;13.00;99.90;;;;;;5000611;28;20513;-81
2022/10/09 11:06:17;;;;;;;0.00;0.00;;;13.00;99.90;;;;;;5012823;28;19928;-82
2022/10/09 11:09:04;;;;;;;0.00;0.00;;;13.20;99.90;;;;;;5016008;28;20069;-81
2022/10/09 11:11:39;;;;;;;0.00;0.00;;;13.30;99.90;;;;;;5028662;28;20055;-81
2022/10/09 11:14:20;;;;;;;0.00;0.00;;;13.30;99.90;;;;;;5030830;28;20069;-81
2022/10/09 11:16:58;;;;;;;0.00;0.00;;;13.30;99.90;;;;;;5012417;28;20076;-81
2022/10/09 11:20:01;;;;;;;0.00;0.00;;;13.30;99.90;;;;;;5015570;28;20080;-81
2022/10/09 11:23:00;;;;;;;0.00;0.00;;;13.40;99.90;;;;;;5020903;28;20049;-81
2022/10/09 11:25:37;;;;;;;0.00;0.00;;;13.50;99.90;;;;;;5005205;28;20471;-81
2022/10/09 11:28:09;;;;;;;0.00;0.00;;;13.60;99.90;;;;;;5014287;28;20083;-80
2022/10/09 11:30:42;;;;;;;0.00;0.00;;;13.50;99.90;;;;;;5011310;28;20390;-81
2022/10/09 11:33:23;;;;;;;0.00;0.00;;;13.60;99.90;;;;;;5014674;28;20541;-82
2022/10/09 11:35:56;;;;;;;0.00;0.00;;;13.70;99.90;;;;;;5014184;28;20042;-82
2022/10/09 11:38:28;;;;;;;0.00;0.00;;;13.60;99.90;;;;;;5032185;28;20504;-81
2022/10/09 11:40:56;;;;;;;0.00;0.00;;;13.70;99.90;;;;;;5015855;28;20409;-82
2022/10/09 11:43:45;;;;;;;0.00;0.00;;;13.60;99.90;;;;;;5011500;28;20045;-81
2022/10/09 11:46:20;;;;;;;0.00;0.00;;;13.70;99.90;;;;;;5035277;28;20394;-81
2022/10/09 11:48:53;;;;;;;0.00;0.00;;;13.70;99.90;;;;;;5032395;28;20069;-81
2022/10/09 11:51:30;;;;;;;0.00;0.00;;;13.80;99.90;;;;;;5015150;28;20136;-82
2022/10/09 11:53:59;;;;;;;0.00;0.00;;;13.90;99.90;;;;;;5013862;28;20051;-82
2022/10/09 11:56:27;;;;;;;0.00;0.00;;;14.20;99.90;;;;;;5031337;28;20041;-82
2022/10/09 11:58:57;;;;;;;0.00;0.00;;;13.90;99.90;;;;;;5030484;28;20055;-82
2022/10/09 12:01:28;;;;;;;0.00;0.00;;;14.00;99.90;;;;;;5029327;28;20384;-79
2022/10/09 12:04:01;;;;;;;0.00;0.00;;;14.00;99.90;;;;;;5015446;28;20299;-82
2022/10/09 12:06:29;;;;;;;0.00;0.00;;;14.10;99.90;;;;;;5011595;28;20129;-82
2022/10/09 12:09:00;;;;;;;0.00;0.00;;;14.10;99.90;;;;;;5032971;28;20409;-81
2022/10/09 12:11:28;;;;;;;0.00;0.00;;;14.10;99.90;;;;;;5013602;28;20409;-82
2022/10/09 12:13:56;;;;;;;0.00;0.00;;;14.20;99.90;;;;;;5031399;28;20055;-81
2022/10/09 12:16:35;;;;;;;0.00;0.00;;;14.20;99.90;;;;;;5012577;28;21542;-81
2022/10/09 12:19:05;;;;;;;0.00;0.00;;;14.30;99.90;;;;;;5025625;28;20045;-81
2022/10/09 12:21:37;;;;;;;0.00;0.00;;;14.90;99.90;;;;;;5012839;28;20049;-81
2022/10/09 12:24:12;;;;;;;0.00;0.00;;;14.30;99.90;;;;;;5006558;28;20409;-80
2022/10/09 12:26:39;;;;;;;0.00;0.00;;;14.40;99.90;;;;;;5028408;28;20037;-82
2022/10/09 12:29:17;;;;;;;0.00;0.00;;;14.40;99.90;;;;;;5013970;28;20124;-82
2022/10/09 12:31:45;;;;;;;0.00;0.00;;;14.40;99.90;;;;;;5015187;28;20128;-81
2022/10/09 12:34:18;;;;;;;0.00;0.00;;;14.40;99.80;;;;;;5014100;28;20054;-81
2022/10/09 12:36:45;;;;;;;0.00;0.00;;;14.40;99.90;;;;;;5013772;28;20051;-81
2022/10/09 12:39:17;;;;;;;0.08;0.08;;;14.50;99.70;;;;;;5013654;28;20490;-82
2022/10/09 12:41:47;;;;;;;0.00;0.00;;;14.60;98.80;;;;;;5017336;28;20493;-81
2022/10/09 12:44:23;;;;;;;0.00;0.00;;;15.40;99.20;;;;;;5013727;28;20124;-81
2022/10/09 12:46:50;;;;;;;0.00;0.00;;;14.70;99.20;;;;;;5013922;28;20473;-82
2022/10/09 12:49:20;;;;;;;0.00;0.00;;;14.60;99.20;;;;;;5013230;28;20041;-81
2022/10/09 12:51:51;;;;;;;0.03;0.03;;;14.60;99.90;;;;;;5027005;28;20056;-81
2022/10/09 12:54:24;;;;;;;0.00;0.00;;;14.60;98.40;;;;;;5030207;28;20065;-81
2022/10/09 12:56:53;;;;;;;0.00;0.00;;;14.60;97.00;;;;;;5014068;28;20042;-81
2022/10/09 12:59:23;;;;;;;0.00;0.00;;;14.70;97.90;;;;;;5012051;28;20462;-81
2022/10/09 13:01:55;;;;;;;0.00;0.00;;;14.70;97.70;;;;;;5029514;28;20038;-82
2022/10/09 13:04:29;;;;;;;0.00;0.00;;;14.70;97.80;;;;;;5014123;28;20045;-81
2022/10/09 13:06:57;;;;;;;0.00;0.00;;;14.70;98.30;;;;;;5013726;28;20507;-82
2022/10/09 13:09:28;;;;;;;0.00;0.00;;;14.70;98.10;;;;;;5014675;28;20053;-81
2022/10/09 13:11:59;;;;;;;0.00;0.00;;;14.70;97.70;;;;;;5012594;28;20041;-81
2022/10/09 13:14:33;;;;;;;0.00;0.00;;;15.20;98.50;;;;;;5013363;28;20079;-81
2022/10/09 13:17:00;;;;;;;0.00;0.00;;;14.70;98.30;;;;;;5012404;28;20152;-81